Time;durP1;ratioP1;P1;durP2;ratioP2;P2;SDS_P1;SDS_P2;PMS_P1;PMS_P2;Temp;Humidity;BMP_temperature;BMP_pressure;BME280_temperature;BME280_humidity;BME280_pressure;Samples;Min_cycle;Max_cycle;Signal;HPM_P1;HPM_P2
2024/01/08 00:01:27;;;;;;;4.93;1.20;;;0.30;99.90;;;;;;4982655;28;20050;-79
2024/01/08 00:03:52;;;;;;;4.77;2.97;;;0.20;99.90;;;;;;4980413;28;20045;-80
2024/01/08 00:06:18;;;;;;;1.53;1.43;;;0.20;99.90;;;;;;4968284;28;20042;-79
2024/01/08 00:08:44;;;;;;;0.70;0.70;;;0.20;99.90;;;;;;4973792;28;20052;-79
2024/01/08 00:11:10;;;;;;;2.97;2.63;;;0.20;99.90;;;;;;4984791;28;20125;-79
2024/01/08 00:13:35;;;;;;;7.47;2.73;;;0.20;99.90;;;;;;4974637;28;20150;-79
2024/01/08 00:16:01;;;;;;;1.90;1.80;;;0.20;99.90;;;;;;4965039;28;20077;-79
2024/01/08 00:18:29;;;;;;;2.00;1.90;;;0.30;99.90;;;;;;4974079;28;20710;-79
2024/01/08 00:20:55;;;;;;;3.50;2.30;;;0.20;99.90;;;;;;4970800;28;20122;-79
2024/01/08 00:23:21;;;;;;;1.30;1.13;;;0.30;99.90;;;;;;4976256;28;20042;-79
2024/01/08 00:25:48;;;;;;;2.80;2.60;;;0.20;99.90;;;;;;4966288;28;20438;-79
2024/01/08 00:28:13;;;;;;;3.40;1.23;;;0.20;99.90;;;;;;4966322;28;20054;-79
2024/01/08 00:30:39;;;;;;;0.83;0.83;;;0.20;99.90;;;;;;4966100;28;20079;-79
2024/01/08 00:33:05;;;;;;;1.97;1.87;;;0.20;99.90;;;;;;4985239;28;20128;-79
2024/01/08 00:35:30;;;;;;;2.27;1.67;;;0.20;99.90;;;;;;4967056;28;20525;-80
2024/01/08 00:37:56;;;;;;;1.00;0.87;;;0.20;99.90;;;;;;4963827;28;20124;-79
2024/01/08 00:40:22;;;;;;;1.67;1.57;;;0.30;99.90;;;;;;4978143;28;20050;-80
2024/01/08 00:42:47;;;;;;;1.23;1.13;;;0.30;99.90;;;;;;4983884;28;20125;-79
2024/01/08 00:45:13;;;;;;;0.53;0.53;;;0.20;99.90;;;;;;4991342;28;20393;-79
2024/01/08 00:47:40;;;;;;;2.17;1.97;;;0.30;99.90;;;;;;4965340;28;20544;-79
2024/01/08 00:50:06;;;;;;;1.80;1.70;;;0.30;99.90;;;;;;4965085;28;20043;-79
2024/01/08 00:52:32;;;;;;;1.20;1.10;;;0.30;99.90;;;;;;4979680;28;20038;-79
2024/01/08 00:55:03;;;;;;;1.63;1.53;;;0.20;99.90;;;;;;4974459;28;20047;-79
2024/01/08 00:57:29;;;;;;;1.75;1.65;;;0.30;99.90;;;;;;4996148;28;20043;-79
2024/01/08 00:59:55;;;;;;;2.53;2.37;;;0.30;99.90;;;;;;4971883;28;20409;-80
2024/01/08 01:02:21;;;;;;;1.30;1.00;;;0.20;99.90;;;;;;4965164;28;20047;-79
2024/01/08 01:04:46;;;;;;;1.07;1.07;;;0.20;99.90;;;;;;4974092;28;20662;-79
2024/01/08 01:07:12;;;;;;;1.57;1.47;;;0.20;99.90;;;;;;4965137;28;20568;-79
2024/01/08 01:09:37;;;;;;;1.40;1.30;;;0.20;99.90;;;;;;4976214;28;20088;-79
2024/01/08 01:12:03;;;;;;;1.50;1.43;;;0.20;99.90;;;;;;4983671;28;20468;-79
2024/01/08 01:14:29;;;;;;;1.97;1.77;;;0.20;99.90;;;;;;4981698;28;20085;-79
2024/01/08 01:16:55;;;;;;;3.23;1.80;;;0.20;99.90;;;;;;4982659;28;20053;-79
2024/01/08 01:19:20;;;;;;;2.77;1.73;;;0.20;99.90;;;;;;4982891;28;20053;-80
2024/01/08 01:21:46;;;;;;;1.50;1.40;;;0.20;99.90;;;;;;4970126;28;20038;-79
2024/01/08 01:24:11;;;;;;;1.80;1.70;;;0.20;99.90;;;;;;4979156;28;20054;-79
2024/01/08 01:26:37;;;;;;;4.00;3.70;;;0.20;99.90;;;;;;4963373;28;20461;-79
2024/01/08 01:29:02;;;;;;;1.93;1.83;;;0.30;99.90;;;;;;4975747;28;20046;-79
2024/01/08 01:31:30;;;;;;;5.20;1.83;;;0.20;99.90;;;;;;5014363;28;20052;-79
2024/01/08 01:33:56;;;;;;;0.73;0.73;;;0.20;99.90;;;;;;5011491;28;20149;-79
2024/01/08 01:36:22;;;;;;;2.70;2.30;;;0.30;99.90;;;;;;4965800;28;20450;-79
2024/01/08 01:38:47;;;;;;;2.47;2.20;;;0.20;99.90;;;;;;4984124;28;20070;-79
2024/01/08 01:41:13;;;;;;;1.33;1.23;;;0.20;99.90;;;;;;4982307;28;20042;-79
2024/01/08 01:43:38;;;;;;;2.27;2.07;;;0.20;99.90;;;;;;4981664;28;20057;-79
2024/01/08 01:46:15;;;;;;;1.20;1.20;;;0.20;99.90;;;;;;4982914;28;20401;-79
2024/01/08 01:48:41;;;;;;;1.70;1.60;;;0.20;99.90;;;;;;4968247;28;20054;-79
2024/01/08 01:51:06;;;;;;;3.33;1.93;;;0.10;99.90;;;;;;4979538;28;20502;-79
2024/01/08 01:53:33;;;;;;;5.47;2.50;;;0.10;99.90;;;;;;4964182;28;20050;-79
2024/01/08 01:55:59;;;;;;;1.50;1.43;;;0.10;99.90;;;;;;4995352;28;20035;-79
2024/01/08 01:58:25;;;;;;;2.33;2.17;;;0.10;99.90;;;;;;4994718;28;20162;-79
2024/01/08 02:00:51;;;;;;;1.17;1.07;;;0.00;99.90;;;;;;4987187;28;20912;-80
2024/01/08 02:03:17;;;;;;;2.23;1.67;;;-0.10;99.90;;;;;;4996312;28;20053;-79
2024/01/08 02:05:43;;;;;;;1.33;1.23;;;-0.10;99.90;;;;;;4996658;28;20120;-79
2024/01/08 02:08:10;;;;;;;1.73;1.60;;;-0.10;99.90;;;;;;4978847;28;20054;-79
2024/01/08 02:10:40;;;;;;;1.20;1.17;;;-0.20;99.90;;;;;;4972327;28;20452;-79
2024/01/08 02:13:06;;;;;;;1.13;1.13;;;-0.20;99.90;;;;;;4982853;28;20553;-79
2024/01/08 02:15:32;;;;;;;1.70;1.60;;;-0.20;99.90;;;;;;4967858;28;20049;-79
2024/01/08 02:17:57;;;;;;;2.23;1.97;;;-0.30;99.90;;;;;;4982513;28;20046;-80
2024/01/08 02:20:23;;;;;;;3.03;1.83;;;-0.30;99.90;;;;;;4982076;28;20085;-79
2024/01/08 02:22:49;;;;;;;2.13;2.03;;;-0.40;99.90;;;;;;4983372;28;20065;-79
2024/01/08 02:25:14;;;;;;;3.10;2.90;;;-0.40;99.90;;;;;;4980785;28;20097;-79
2024/01/08 02:27:40;;;;;;;2.30;2.10;;;-0.40;99.90;;;;;;4980889;28;20089;-79
2024/01/08 02:30:06;;;;;;;1.23;1.23;;;-0.40;99.90;;;;;;4978240;28;20034;-79
2024/01/08 02:32:32;;;;;;;5.13;2.07;;;-0.50;99.90;;;;;;4963521;28;20053;-79
2024/01/08 02:34:57;;;;;;;1.57;1.47;;;-0.50;99.90;;;;;;4964686;28;20054;-79
2024/01/08 02:37:23;;;;;;;2.30;1.43;;;-0.50;99.90;;;;;;4962188;28;20481;-79
2024/01/08 02:39:49;;;;;;;1.73;1.63;;;-0.40;99.90;;;;;;4963862;28;20042;-79
2024/01/08 02:42:17;;;;;;;1.90;1.80;;;-0.50;99.90;;;;;;4963996;28;20043;-79
2024/01/08 02:44:42;;;;;;;1.43;1.33;;;-0.40;99.90;;;;;;4961624;28;20054;-79
2024/01/08 02:47:08;;;;;;;1.03;0.97;;;-0.40;99.90;;;;;;4977846;28;20070;-79
2024/01/08 02:49:34;;;;;;;1.70;1.43;;;-0.40;99.90;;;;;;4981944;28;20039;-79
2024/01/08 02:51:59;;;;;;;2.20;2.03;;;-0.40;99.90;;;;;;4982078;28;20472;-79
2024/01/08 02:54:25;;;;;;;1.70;0.90;;;-0.40;99.90;;;;;;5014537;28;20039;-79
2024/01/08 02:56:51;;;;;;;2.10;2.00;;;-0.40;99.90;;;;;;4981726;28;20419;-80
2024/01/08 02:59:16;;;;;;;1.50;1.40;;;-0.40;99.90;;;;;;4980635;28;20155;-79
2024/01/08 03:01:42;;;;;;;1.80;1.47;;;-0.30;99.90;;;;;;4963460;28;20043;-79
2024/01/08 03:04:07;;;;;;;2.73;2.53;;;-0.30;99.90;;;;;;4962188;28;20708;-79
2024/01/08 03:06:33;;;;;;;1.73;1.63;;;-0.30;99.90;;;;;;4962140;28;20102;-79
2024/01/08 03:08:59;;;;;;;3.40;1.77;;;-0.30;99.90;;;;;;4961931;28;20765;-79
2024/01/08 03:11:24;;;;;;;2.67;2.27;;;-0.30;99.90;;;;;;4962044;28;20043;-79
2024/01/08 03:13:50;;;;;;;1.57;1.40;;;-0.20;99.90;;;;;;4962676;28;20045;-80
2024/01/08 03:16:18;;;;;;;2.93;2.77;;;-0.20;99.90;;;;;;4964498;28;20066;-79
2024/01/08 03:18:46;;;;;;;5.40;1.70;;;-0.10;99.90;;;;;;4965792;28;20061;-79
2024/01/08 03:21:12;;;;;;;1.50;1.40;;;-0.20;99.90;;;;;;4965374;28;20767;-79
2024/01/08 03:23:37;;;;;;;0.87;0.87;;;-0.20;99.90;;;;;;4982057;28;20050;-79
2024/01/08 03:26:03;;;;;;;4.87;0.83;;;-0.10;99.90;;;;;;4964926;28;20482;-79
2024/01/08 03:28:29;;;;;;;3.33;1.60;;;-0.10;99.90;;;;;;4967219;28;20051;-79
2024/01/08 03:30:54;;;;;;;1.23;1.23;;;-0.10;99.90;;;;;;4977002;28;20121;-79
2024/01/08 03:33:20;;;;;;;1.27;1.17;;;-0.10;99.90;;;;;;4981853;28;20046;-80
2024/01/08 03:35:45;;;;;;;1.80;1.70;;;-0.10;99.90;;;;;;4967046;28;20046;-79
2024/01/08 03:38:11;;;;;;;1.20;1.10;;;-0.10;99.90;;;;;;4983333;28;20085;-79
2024/01/08 03:40:36;;;;;;;5.30;1.87;;;-0.10;99.90;;;;;;4969194;28;20035;-79
2024/01/08 03:43:02;;;;;;;4.17;1.53;;;-0.10;99.90;;;;;;4964646;28;20390;-79
2024/01/08 03:45:28;;;;;;;1.47;1.47;;;0.00;99.90;;;;;;4982156;28;20105;-79
2024/01/08 03:47:54;;;;;;;3.60;0.77;;;0.00;99.90;;;;;;5016791;28;20046;-80
2024/01/08 03:50:19;;;;;;;0.90;0.90;;;0.00;99.90;;;;;;4971310;28;20061;-80
2024/01/08 03:52:45;;;;;;;2.70;1.67;;;0.00;99.90;;;;;;4965086;28;20129;-79
2024/01/08 03:55:10;;;;;;;2.07;1.60;;;0.00;99.90;;;;;;4972808;28;20046;-79
2024/01/08 03:57:36;;;;;;;1.57;1.50;;;0.10;99.90;;;;;;4968354;28;20465;-79
2024/01/08 04:00:03;;;;;;;2.03;1.93;;;0.10;99.90;;;;;;4969272;28;20501;-79
2024/01/08 04:02:28;;;;;;;1.73;1.63;;;0.10;99.90;;;;;;4966423;28;20082;-79
2024/01/08 04:04:54;;;;;;;2.80;2.33;;;0.10;99.90;;;;;;4980388;28;20090;-80
2024/01/08 04:07:19;;;;;;;1.70;1.60;;;0.10;99.90;;;;;;4997996;28;20696;-81
2024/01/08 04:09:45;;;;;;;1.40;0.97;;;0.10;99.90;;;;;;4997544;28;20045;-79
2024/01/08 04:12:12;;;;;;;2.93;2.63;;;0.10;99.90;;;;;;4968143;28;20417;-79
2024/01/08 04:14:38;;;;;;;3.03;2.17;;;0.10;99.90;;;;;;4983912;28;20505;-79
2024/01/08 04:17:05;;;;;;;1.47;1.20;;;0.10;99.90;;;;;;4984944;28;20043;-79
2024/01/08 04:19:31;;;;;;;1.60;1.07;;;0.10;99.90;;;;;;4985605;28;20043;-79
2024/01/08 04:21:56;;;;;;;3.33;2.93;;;0.10;99.90;;;;;;4999501;28;20049;-79
2024/01/08 04:24:22;;;;;;;1.90;1.80;;;0.10;99.90;;;;;;4985443;28;20049;-79
2024/01/08 04:26:48;;;;;;;3.87;3.00;;;0.10;99.90;;;;;;4985419;28;20481;-79
2024/01/08 04:29:13;;;;;;;2.33;2.23;;;0.10;99.90;;;;;;4982104;28;20449;-79
2024/01/08 04:31:39;;;;;;;1.33;1.10;;;0.10;99.90;;;;;;4983872;28;20478;-79
2024/01/08 04:34:04;;;;;;;2.20;1.30;;;0.10;99.90;;;;;;4984090;28;20065;-79
2024/01/08 04:36:30;;;;;;;2.30;2.10;;;0.10;99.90;;;;;;4984977;28;20122;-79
2024/01/08 04:38:55;;;;;;;2.40;2.20;;;0.10;99.90;;;;;;4984218;28;20397;-79
2024/01/08 04:41:21;;;;;;;1.10;1.10;;;0.10;99.90;;;;;;4983413;28;20120;-79
2024/01/08 04:43:48;;;;;;;1.80;1.70;;;0.10;99.90;;;;;;4984215;28;20121;-79
2024/01/08 04:46:14;;;;;;;1.97;1.73;;;0.10;99.90;;;;;;4984562;28;20043;-79
2024/01/08 04:48:42;;;;;;;1.43;1.33;;;0.20;99.90;;;;;;4985146;28;20054;-79
2024/01/08 04:51:08;;;;;;;2.33;1.27;;;0.10;99.90;;;;;;4974191;28;20150;-79
2024/01/08 04:53:36;;;;;;;3.27;2.30;;;0.20;99.90;;;;;;4964768;28;20138;-79
2024/01/08 04:56:01;;;;;;;1.80;1.57;;;0.10;99.90;;;;;;4982838;28;20081;-79
2024/01/08 04:58:28;;;;;;;2.40;2.17;;;0.10;99.90;;;;;;4975281;28;20108;-80
2024/01/08 05:00:53;;;;;;;4.20;2.43;;;0.10;99.90;;;;;;4963142;28;20074;-79
2024/01/08 05:03:19;;;;;;;2.07;1.97;;;0.10;99.90;;;;;;4978749;28;20085;-79
2024/01/08 05:05:44;;;;;;;2.77;1.60;;;0.20;99.90;;;;;;4985034;28;20051;-79
2024/01/08 05:08:10;;;;;;;2.43;1.70;;;0.10;99.90;;;;;;4999042;28;20591;-80
2024/01/08 05:10:35;;;;;;;2.43;2.23;;;0.10;99.90;;;;;;4976569;28;20580;-80
2024/01/08 05:13:01;;;;;;;2.40;2.20;;;0.10;99.90;;;;;;4963613;28;20046;-80
2024/01/08 05:15:26;;;;;;;1.90;1.80;;;0.20;99.90;;;;;;4962811;28;20050;-80
2024/01/08 05:17:52;;;;;;;1.80;1.70;;;0.10;99.90;;;;;;4982680;28;20053;-81
2024/01/08 05:20:18;;;;;;;2.73;2.33;;;0.10;99.90;;;;;;4984361;28;20049;-80
2024/01/08 05:22:43;;;;;;;2.37;2.27;;;0.20;99.90;;;;;;4982776;28;20134;-80
2024/01/08 05:25:09;;;;;;;2.90;2.80;;;0.20;99.90;;;;;;4998888;28;20714;-80
2024/01/08 05:27:35;;;;;;;1.87;1.77;;;0.20;99.90;;;;;;4976256;28;20038;-80
2024/01/08 05:30:01;;;;;;;2.07;1.97;;;0.20;99.90;;;;;;4979995;28;20090;-80
2024/01/08 05:32:26;;;;;;;1.43;1.33;;;0.10;99.90;;;;;;4982312;28;20129;-80
2024/01/08 05:34:52;;;;;;;1.17;1.13;;;0.10;99.90;;;;;;4968609;28;20101;-80
2024/01/08 05:37:17;;;;;;;1.37;1.30;;;0.10;99.90;;;;;;4964126;28;20082;-80
2024/01/08 05:39:43;;;;;;;2.10;2.00;;;0.10;99.90;;;;;;4973933;28;20503;-80
2024/01/08 05:42:08;;;;;;;1.67;1.57;;;0.10;99.90;;;;;;4971250;28;20073;-80
2024/01/08 05:44:35;;;;;;;1.53;1.43;;;0.10;99.90;;;;;;4980991;28;20042;-80
2024/01/08 05:47:00;;;;;;;0.83;0.77;;;0.10;99.90;;;;;;4970798;28;20117;-79
2024/01/08 05:49:26;;;;;;;1.63;1.53;;;0.10;99.90;;;;;;4977174;28;20128;-80
2024/01/08 05:51:51;;;;;;;0.50;0.50;;;0.10;99.90;;;;;;5007152;28;20058;-80
2024/01/08 05:54:17;;;;;;;0.60;0.60;;;0.10;99.90;;;;;;4969990;28;20031;-79
2024/01/08 05:56:42;;;;;;;1.50;1.10;;;0.10;99.90;;;;;;4970993;28;20089;-79
2024/01/08 05:59:08;;;;;;;1.73;1.63;;;0.10;99.90;;;;;;4962676;28;20482;-80
2024/01/08 06:01:34;;;;;;;1.13;1.13;;;0.10;99.90;;;;;;4964244;28;20051;-80
2024/01/08 06:04:00;;;;;;;1.10;1.10;;;0.10;99.90;;;;;;4963597;28;20122;-80
2024/01/08 06:06:26;;;;;;;7.73;2.27;;;0.00;99.90;;;;;;4962714;28;20528;-80
2024/01/08 06:08:51;;;;;;;1.70;1.47;;;0.00;99.90;;;;;;4969992;28;20087;-81
2024/01/08 06:11:17;;;;;;;1.03;1.03;;;-0.10;99.90;;;;;;4977900;28;20047;-80
2024/01/08 06:13:42;;;;;;;0.63;0.63;;;-0.10;99.90;;;;;;4981557;28;20123;-80
2024/01/08 06:16:14;;;;;;;1.10;1.10;;;-0.20;99.90;;;;;;4982270;28;20054;-81
2024/01/08 06:18:40;;;;;;;2.33;1.10;;;-0.20;99.90;;;;;;4981761;28;20061;-80
2024/01/08 06:21:05;;;;;;;1.43;1.37;;;-0.20;99.90;;;;;;4980820;28;20405;-80
2024/01/08 06:23:31;;;;;;;1.03;1.03;;;-0.30;99.90;;;;;;4969775;28;20050;-80
2024/01/08 06:25:56;;;;;;;1.83;1.73;;;-0.30;99.90;;;;;;4963516;28;20073;-80
2024/01/08 06:28:22;;;;;;;0.50;0.50;;;-0.40;99.90;;;;;;4977801;28;20057;-81
2024/01/08 06:30:48;;;;;;;0.97;0.90;;;-0.40;99.90;;;;;;4983213;28;20078;-82
2024/01/08 06:33:13;;;;;;;1.30;1.17;;;-0.40;99.90;;;;;;4981495;28;20053;-80
2024/01/08 06:35:41;;;;;;;1.10;1.10;;;-0.50;99.90;;;;;;4983216;28;20068;-81
2024/01/08 06:38:07;;;;;;;1.03;0.97;;;-0.50;99.90;;;;;;4981904;28;20046;-81
2024/01/08 06:40:32;;;;;;;2.10;2.00;;;-0.50;99.90;;;;;;4981409;28;20034;-81
2024/01/08 06:42:58;;;;;;;1.73;1.60;;;-0.50;99.90;;;;;;4980242;28;20100;-82
2024/01/08 06:45:23;;;;;;;1.53;1.43;;;-0.60;99.90;;;;;;4968649;28;20046;-81
2024/01/08 06:47:49;;;;;;;0.93;0.93;;;-0.60;99.90;;;;;;4979175;28;20066;-81
2024/01/08 06:50:15;;;;;;;1.00;1.00;;;-0.60;99.90;;;;;;4982896;28;20030;-81
2024/01/08 06:52:40;;;;;;;3.23;2.93;;;-0.60;99.90;;;;;;4975859;28;20046;-81
2024/01/08 06:55:07;;;;;;;1.93;1.83;;;-0.60;99.90;;;;;;4981876;28;20056;-81
2024/01/08 06:57:32;;;;;;;3.57;2.30;;;-0.60;99.90;;;;;;4979514;28;20129;-81
2024/01/08 06:59:58;;;;;;;2.93;2.07;;;-0.60;99.90;;;;;;4995536;28;20126;-81
2024/01/08 07:02:23;;;;;;;4.13;1.33;;;-0.70;99.90;;;;;;4987053;28;20050;-83
2024/01/08 07:04:49;;;;;;;0.40;0.40;;;-0.70;99.90;;;;;;4986133;28;20054;-82
2024/01/08 07:07:14;;;;;;;7.73;1.23;;;-0.60;99.90;;;;;;4984951;28;20134;-82
2024/01/08 07:09:40;;;;;;;2.10;1.97;;;-0.70;99.90;;;;;;4983636;28;20046;-82
2024/01/08 07:12:06;;;;;;;2.10;1.83;;;-0.70;99.90;;;;;;5000221;28;20046;-82
2024/01/08 07:14:32;;;;;;;1.30;1.20;;;-0.70;99.90;;;;;;4979433;28;20426;-82
2024/01/08 07:16:58;;;;;;;1.57;1.30;;;-0.70;99.90;;;;;;4971683;28;20045;-81
2024/01/08 07:19:23;;;;;;;1.13;0.87;;;-0.70;99.90;;;;;;4976202;28;20125;-78
2024/01/08 07:21:49;;;;;;;0.57;0.57;;;-0.70;99.90;;;;;;4983690;28;20113;-78
2024/01/08 07:24:15;;;;;;;2.13;1.97;;;-0.70;99.90;;;;;;4977070;28;20401;-78
2024/01/08 07:26:40;;;;;;;0.53;0.53;;;-0.70;99.90;;;;;;4983926;28;20101;-78
2024/01/08 07:29:06;;;;;;;2.30;1.77;;;-0.70;99.90;;;;;;4982796;28;20114;-75
2024/01/08 07:31:32;;;;;;;1.73;1.63;;;-0.70;99.90;;;;;;4981271;28;20056;-75
2024/01/08 07:33:58;;;;;;;1.43;1.13;;;-0.80;99.90;;;;;;4982008;28;20375;-75
2024/01/08 07:36:24;;;;;;;0.87;0.87;;;-0.80;99.90;;;;;;4984606;28;20125;-75
2024/01/08 07:38:49;;;;;;;2.30;2.17;;;-0.80;99.90;;;;;;4982836;28;20513;-76
2024/01/08 07:41:15;;;;;;;0.50;0.50;;;-0.80;99.90;;;;;;4978864;28;20382;-76
2024/01/08 07:43:41;;;;;;;6.20;1.77;;;-0.80;99.90;;;;;;4982429;28;20050;-76
2024/01/08 07:46:07;;;;;;;3.47;3.27;;;-0.80;99.90;;;;;;5004422;28;20039;-76
2024/01/08 07:48:33;;;;;;;1.60;1.50;;;-0.70;99.90;;;;;;4983180;28;20320;-76
2024/01/08 07:51:00;;;;;;;1.17;0.80;;;-0.80;99.90;;;;;;4980652;28;20049;-75
2024/01/08 07:53:26;;;;;;;2.60;1.17;;;-0.70;99.90;;;;;;4982230;28;20042;-77
2024/01/08 07:55:52;;;;;;;5.83;1.30;;;-0.80;99.90;;;;;;4983203;28;20106;-75
2024/01/08 07:58:17;;;;;;;4.13;1.57;;;-0.80;99.90;;;;;;4980685;28;20046;-74
2024/01/08 08:00:43;;;;;;;2.13;1.43;;;-0.70;99.90;;;;;;4965622;28;20039;-77
2024/01/08 08:03:09;;;;;;;1.30;0.73;;;-0.80;99.90;;;;;;4981053;28;20084;-75
2024/01/08 08:05:34;;;;;;;0.93;0.93;;;-0.70;99.90;;;;;;4983810;28;20047;-73
2024/01/08 08:08:00;;;;;;;2.57;1.07;;;-0.70;99.90;;;;;;4982296;28;20046;-76
2024/01/08 08:10:26;;;;;;;2.00;1.37;;;-0.70;99.90;;;;;;4983670;28;20035;-76
2024/01/08 08:12:52;;;;;;;1.13;0.90;;;-0.70;99.90;;;;;;4981675;28;20484;-76
2024/01/08 08:15:18;;;;;;;1.97;1.50;;;-0.80;99.90;;;;;;4983878;28;20057;-76
2024/01/08 08:17:44;;;;;;;1.30;1.20;;;-0.80;99.90;;;;;;4967556;28;20069;-76
2024/01/08 08:20:10;;;;;;;2.73;1.17;;;-0.80;99.90;;;;;;4995031;28;20089;-76
2024/01/08 08:22:36;;;;;;;0.60;0.60;;;-0.80;99.90;;;;;;5004965;28;20145;-79
2024/01/08 08:25:02;;;;;;;1.03;1.03;;;-0.70;99.90;;;;;;4981998;28;20037;-78
2024/01/08 08:27:28;;;;;;;5.53;1.20;;;-0.70;99.90;;;;;;4981983;28;20401;-79
2024/01/08 08:29:54;;;;;;;1.50;0.70;;;-0.70;99.90;;;;;;4980797;28;20050;-79
2024/01/08 08:32:20;;;;;;;0.97;0.90;;;-0.60;99.90;;;;;;5014894;28;20045;-79
2024/01/08 08:34:45;;;;;;;0.73;0.73;;;-0.60;99.90;;;;;;4982434;28;20672;-79
2024/01/08 08:37:11;;;;;;;0.87;0.87;;;-0.50;99.90;;;;;;4983395;28;20394;-79
2024/01/08 08:39:38;;;;;;;0.73;0.73;;;-0.50;99.90;;;;;;4981863;28;20049;-79
2024/01/08 08:42:05;;;;;;;1.13;1.13;;;-0.50;99.90;;;;;;4981765;28;20038;-79
2024/01/08 08:44:31;;;;;;;14.63;2.13;;;-0.50;99.90;;;;;;4980634;28;20137;-79
2024/01/08 08:46:59;;;;;;;0.67;0.67;;;-0.40;99.90;;;;;;4981893;28;20117;-79
2024/01/08 08:49:25;;;;;;;1.43;1.40;;;-0.40;99.90;;;;;;4983265;28;20129;-79
2024/01/08 08:51:51;;;;;;;1.30;1.17;;;-0.40;99.90;;;;;;4983090;28;20042;-79
2024/01/08 08:54:17;;;;;;;1.33;1.33;;;-0.30;99.90;;;;;;4982448;28;20042;-78
2024/01/08 08:56:42;;;;;;;1.60;1.43;;;-0.30;99.90;;;;;;4982341;28;20121;-80
2024/01/08 08:59:09;;;;;;;1.13;1.13;;;-0.30;99.90;;;;;;4979906;28;20069;-79
2024/01/08 09:01:34;;;;;;;0.67;0.67;;;-0.30;99.90;;;;;;4962594;28;20058;-79
2024/01/08 09:04:00;;;;;;;0.97;0.97;;;-0.30;99.90;;;;;;4965218;28;20046;-80
2024/01/08 09:06:33;;;;;;;0.40;0.40;;;-0.20;99.90;;;;;;4982822;28;20378;-78
2024/01/08 09:08:59;;;;;;;1.13;1.13;;;-0.20;99.90;;;;;;4997319;28;20454;-78
2024/01/08 09:11:25;;;;;;;1.90;1.57;;;-0.20;99.90;;;;;;4997990;28;20089;-79
2024/01/08 09:13:51;;;;;;;2.53;0.73;;;-0.20;99.90;;;;;;4979207;28;20480;-79
2024/01/08 09:16:17;;;;;;;0.90;0.90;;;-0.20;99.90;;;;;;4962471;28;20482;-79
2024/01/08 09:18:43;;;;;;;0.90;0.73;;;-0.10;99.90;;;;;;4961902;28;20061;-78
2024/01/08 09:21:13;;;;;;;2.20;2.03;;;-0.10;99.90;;;;;;4961788;28;20450;-78
2024/01/08 09:23:42;;;;;;;3.50;1.97;;;-0.10;99.90;;;;;;4979957;28;20085;-78
2024/01/08 09:26:08;;;;;;;0.57;0.57;;;0.00;99.90;;;;;;4980699;28;20117;-78
2024/01/08 09:28:34;;;;;;;1.60;1.50;;;0.00;99.90;;;;;;4981849;28;20105;-78
2024/01/08 09:31:04;;;;;;;1.27;1.10;;;0.00;99.90;;;;;;4981193;28;20042;-78
2024/01/08 09:33:30;;;;;;;1.83;1.53;;;0.10;99.90;;;;;;4980864;28;20485;-78
2024/01/08 09:35:56;;;;;;;0.50;0.50;;;0.10;99.90;;;;;;4980241;28;20494;-78
2024/01/08 09:38:21;;;;;;;4.07;2.10;;;0.10;99.90;;;;;;4981329;28;20046;-78
2024/01/08 09:40:48;;;;;;;1.50;1.20;;;0.20;99.90;;;;;;4983153;28;20038;-77
2024/01/08 09:43:15;;;;;;;1.47;1.37;;;0.20;99.90;;;;;;4979531;28;20046;-78
2024/01/08 09:46:01;;;;;;;3.20;1.10;;;0.20;99.90;;;;;;4982609;28;20451;-78
2024/01/08 09:48:26;;;;;;;0.97;0.97;;;0.20;99.90;;;;;;4980888;28;20195;-78
2024/01/08 09:50:52;;;;;;;0.50;0.50;;;0.30;99.90;;;;;;4980873;28;20046;-79
2024/01/08 09:53:18;;;;;;;2.87;1.13;;;0.30;99.90;;;;;;4980742;28;20524;-78
2024/01/08 09:55:45;;;;;;;1.10;1.10;;;0.30;99.90;;;;;;4980192;28;20038;-78
2024/01/08 09:58:11;;;;;;;1.67;1.57;;;0.30;99.90;;;;;;4979000;28;20343;-78
2024/01/08 10:00:36;;;;;;;2.93;0.90;;;0.40;99.90;;;;;;4969398;28;20370;-78
2024/01/08 10:03:02;;;;;;;0.97;0.97;;;0.40;99.90;;;;;;4962160;28;20038;-78
2024/01/08 10:05:28;;;;;;;2.00;1.90;;;0.40;99.90;;;;;;4993202;28;20054;-78
2024/01/08 10:07:54;;;;;;;0.30;0.30;;;0.40;99.90;;;;;;4976737;28;20039;-78
2024/01/08 10:10:22;;;;;;;1.03;1.03;;;0.40;99.90;;;;;;4967050;28;20100;-78
2024/01/08 10:12:51;;;;;;;2.73;0.97;;;0.50;99.90;;;;;;4981471;28;20464;-78
2024/01/08 10:15:19;;;;;;;1.37;1.27;;;0.50;99.90;;;;;;4961315;28;20134;-78
2024/01/08 10:17:49;;;;;;;1.73;1.63;;;0.50;99.90;;;;;;4961167;28;20441;-78
2024/01/08 10:20:15;;;;;;;0.73;0.70;;;0.50;99.90;;;;;;4961799;28;20532;-79
2024/01/08 10:22:43;;;;;;;1.53;1.43;;;0.50;99.90;;;;;;4974124;28;20042;-77
2024/01/08 10:25:08;;;;;;;0.20;0.20;;;0.50;99.90;;;;;;4977345;28;20043;-77
2024/01/08 10:27:34;;;;;;;0.70;0.70;;;0.60;99.90;;;;;;4980017;28;20038;-76
2024/01/08 10:30:01;;;;;;;0.67;0.67;;;0.60;99.90;;;;;;4978134;28;20093;-79
2024/01/08 10:32:26;;;;;;;1.00;0.97;;;0.60;99.90;;;;;;4979645;28;20050;-76
2024/01/08 10:34:52;;;;;;;1.17;0.77;;;0.60;99.90;;;;;;4979460;28;20046;-77
2024/01/08 10:37:18;;;;;;;1.60;1.50;;;0.60;99.90;;;;;;4979642;28;20327;-76
2024/01/08 10:39:47;;;;;;;0.60;0.60;;;0.60;99.90;;;;;;4963796;28;20497;-77
2024/01/08 10:42:12;;;;;;;0.87;0.87;;;0.60;99.90;;;;;;4979782;28;20150;-79
2024/01/08 10:44:38;;;;;;;0.93;0.87;;;0.60;99.90;;;;;;4978267;28;20207;-78
2024/01/08 10:47:08;;;;;;;0.90;0.90;;;0.60;99.90;;;;;;4979927;28;20045;-77
2024/01/08 10:49:36;;;;;;;1.50;0.80;;;0.70;99.90;;;;;;4981128;28;20117;-79
2024/01/08 10:52:21;;;;;;;13.20;2.23;;;0.60;99.90;;;;;;4978450;28;20038;-78
2024/01/08 10:54:53;;;;;;;0.77;0.77;;;0.70;99.90;;;;;;4979637;28;20047;-79
2024/01/08 10:57:20;;;;;;;0.47;0.47;;;0.70;99.90;;;;;;4991777;28;20038;-78
2024/01/08 10:59:48;;;;;;;1.77;1.50;;;0.70;99.90;;;;;;4982978;28;20267;-78
2024/01/08 11:02:16;;;;;;;0.70;0.70;;;0.70;99.90;;;;;;4980626;28;20081;-79
2024/01/08 11:04:43;;;;;;;0.90;0.90;;;0.70;99.90;;;;;;4981308;28;20254;-78
2024/01/08 11:07:11;;;;;;;0.93;0.93;;;0.70;99.90;;;;;;4980571;28;20113;-78
2024/01/08 11:09:38;;;;;;;0.90;0.90;;;0.70;99.90;;;;;;4979964;28;20056;-77
2024/01/08 11:12:05;;;;;;;1.53;1.07;;;0.80;99.90;;;;;;4979306;28;20122;-79
2024/01/08 11:14:32;;;;;;;1.13;1.10;;;0.80;99.90;;;;;;4978881;28;20047;-78
2024/01/08 11:16:58;;;;;;;3.73;0.90;;;0.80;99.90;;;;;;4995758;28;20077;-76
2024/01/08 11:19:24;;;;;;;0.80;0.80;;;0.80;99.90;;;;;;5002023;28;20545;-78
2024/01/08 11:21:55;;;;;;;0.57;0.57;;;0.80;99.90;;;;;;4978224;28;20042;-77
2024/01/08 11:24:21;;;;;;;1.20;1.10;;;0.80;99.90;;;;;;4974661;28;20086;-76
2024/01/08 11:26:51;;;;;;;0.57;0.50;;;0.80;99.90;;;;;;4970582;28;20473;-77
2024/01/08 11:29:17;;;;;;;0.60;0.60;;;0.80;99.90;;;;;;4978943;28;20054;-77
2024/01/08 11:32:44;;;;;;;1.17;1.10;;;0.80;99.90;;;;;;4972116;28;20130;-79
2024/01/08 11:35:13;;;;;;;0.40;0.40;;;0.80;99.90;;;;;;4922734;29;20051;-79
2024/01/08 11:37:41;;;;;;;2.00;1.77;;;0.80;99.90;;;;;;4948173;28;20417;-78
2024/01/08 11:40:15;;;;;;;1.07;0.90;;;0.80;99.90;;;;;;4956680;28;20059;-76
2024/01/08 11:42:43;;;;;;;1.70;1.70;;;0.80;99.90;;;;;;4962593;28;20529;-76
2024/01/08 11:45:08;;;;;;;1.80;1.70;;;0.80;99.90;;;;;;4980863;28;20259;-75
2024/01/08 11:47:35;;;;;;;0.87;0.87;;;0.80;99.90;;;;;;5001050;28;20061;-77
2024/01/08 11:50:01;;;;;;;2.00;1.10;;;0.70;99.90;;;;;;4978941;28;20121;-76
2024/01/08 11:52:27;;;;;;;0.83;0.83;;;0.70;99.90;;;;;;4993499;28;20054;-76
2024/01/08 11:54:54;;;;;;;1.17;1.13;;;0.60;99.90;;;;;;4992570;28;20106;-78
2024/01/08 11:57:20;;;;;;;1.47;1.37;;;0.60;99.90;;;;;;4976328;28;20039;-78
2024/01/08 11:59:46;;;;;;;0.60;0.60;;;0.50;99.90;;;;;;4976703;28;20042;-78
2024/01/08 12:02:14;;;;;;;3.03;1.57;;;0.50;99.90;;;;;;4981489;28;20279;-76
2024/01/08 12:04:40;;;;;;;0.60;0.60;;;0.50;99.90;;;;;;4981974;28;20637;-75
2024/01/08 12:07:08;;;;;;;0.63;0.63;;;0.50;99.90;;;;;;4981805;28;20047;-77
2024/01/08 12:09:34;;;;;;;0.43;0.43;;;0.50;99.90;;;;;;4982720;28;20885;-76
2024/01/08 12:12:08;;;;;;;1.40;0.83;;;0.40;99.90;;;;;;4982974;28;20117;-78
2024/01/08 12:14:35;;;;;;;0.70;0.70;;;0.40;99.90;;;;;;4983216;28;20088;-77
2024/01/08 12:17:04;;;;;;;1.90;1.23;;;0.50;99.90;;;;;;4983462;28;20039;-78
2024/01/08 12:19:47;;;;;;;0.97;0.87;;;0.50;99.90;;;;;;4981849;28;20038;-78
2024/01/08 12:22:14;;;;;;;3.53;1.53;;;0.50;99.90;;;;;;4980902;28;20045;-78
2024/01/08 12:24:42;;;;;;;0.80;0.80;;;0.50;99.90;;;;;;4981753;28;20050;-80
2024/01/08 12:27:08;;;;;;;0.70;0.70;;;0.60;99.90;;;;;;4979186;28;20034;-76
2024/01/08 12:29:41;;;;;;;1.00;0.90;;;0.60;99.90;;;;;;4975476;28;20043;-77
2024/01/08 12:32:09;;;;;;;0.63;0.63;;;0.70;99.90;;;;;;4978977;28;20081;-78
2024/01/08 12:34:39;;;;;;;1.67;1.60;;;0.70;99.90;;;;;;4981058;28;20097;-79
2024/01/08 12:37:06;;;;;;;0.57;0.57;;;0.70;99.90;;;;;;4980337;28;20266;-77
2024/01/08 12:39:35;;;;;;;0.70;0.70;;;0.60;99.90;;;;;;4981626;28;20516;-80
2024/01/08 12:42:18;;;;;;;0.87;0.87;;;0.70;99.90;;;;;;4980654;28;20528;-77
2024/01/08 12:44:45;;;;;;;1.43;1.00;;;0.70;99.90;;;;;;4999170;28;20197;-78
2024/01/08 12:47:11;;;;;;;0.93;0.93;;;0.70;99.90;;;;;;4981213;28;20046;-77
2024/01/08 12:49:37;;;;;;;0.67;0.67;;;0.60;99.90;;;;;;4982557;28;20046;-78